Time;durP1;ratioP1;P1;durP2;ratioP2;P2;SDS_P1;SDS_P2;PMS_P1;PMS_P2;Temp;Humidity;BMP_temperature;BMP_pressure;BME280_temperature;BME280_humidity;BME280_pressure;Samples;Min_cycle;Max_cycle;Signal;HPM_P1;HPM_P2
2021/10/04 00:00:54;;;;;;;;;1.00;1.00;;;;;16.36;58.20;100845.13;2092189;28;48205;-52
2021/10/04 00:01:55;;;;;;;;;2.00;1.67;;;;;16.37;58.52;100846.00;2091417;28;46376;-53
2021/10/04 00:02:55;;;;;;;;;2.00;2.00;;;;;16.35;58.46;100838.03;2091646;28;47147;-53
2021/10/04 00:03:56;;;;;;;;;0.67;0.67;;;;;16.36;58.39;100844.28;2091509;28;46419;-50
2021/10/04 00:04:56;;;;;;;;;2.00;2.00;;;;;16.35;58.09;100851.44;2091758;28;47449;-51
2021/10/04 00:05:58;;;;;;;;;2.00;2.00;;;;;16.35;58.67;100856.78;2091387;28;47444;-51
2021/10/04 00:06:59;;;;;;;;;0.75;0.75;;;;;16.35;58.54;100855.91;2091676;28;48321;-49
2021/10/04 00:08:00;;;;;;;;;1.67;0.67;;;;;16.34;58.18;100857.72;2091374;28;46952;-51
2021/10/04 00:09:01;;;;;;;;;0.25;0.25;;;;;16.33;58.46;100860.47;2091748;28;48748;-51
2021/10/04 00:10:07;;;;;;;;;1.00;1.00;;;;;16.33;58.32;100860.47;2099732;28;46507;-50
2021/10/04 00:11:07;;;;;;;;;2.75;2.75;;;;;16.32;58.50;100858.75;2083184;28;47872;-51
2021/10/04 00:12:08;;;;;;;;;0.33;0.33;;;;;16.32;58.58;100862.28;2083080;28;47101;-51
2021/10/04 00:13:08;;;;;;;;;2.00;2.00;;;;;16.31;58.63;100860.56;2083017;28;47422;-50
2021/10/04 00:14:09;;;;;;;;;1.00;1.00;;;;;16.30;58.71;100853.47;2083007;28;47708;-53
2021/10/04 00:15:13;;;;;;;;;1.33;1.33;;;;;16.30;58.75;100858.81;2087483;28;48403;-48
2021/10/04 00:16:14;;;;;;;;;0.75;0.75;;;;;16.30;58.24;100857.94;2091495;28;48218;-48
2021/10/04 00:17:14;;;;;;;;;4.00;1.67;;;;;16.29;58.29;100858.88;2091733;28;47039;-53
2021/10/04 00:18:15;;;;;;;;;1.33;1.33;;;;;16.29;58.31;100862.44;2092246;28;46099;-50
2021/10/04 00:19:16;;;;;;;;;2.00;2.00;;;;;16.26;58.29;100861.66;2097419;28;47526;-52
2021/10/04 00:20:18;;;;;;;;;1.50;1.50;;;;;16.26;58.74;100861.66;2093081;28;47183;-48
2021/10/04 00:21:19;;;;;;;;;0.50;0.50;;;;;16.25;58.22;100855.44;2088016;28;48374;-48
2021/10/04 00:22:20;;;;;;;;;1.00;1.00;;;;;16.24;58.44;100859.06;2083644;28;48387;-51
2021/10/04 00:23:20;;;;;;;;;3.00;1.33;;;;;16.23;58.55;100868.03;2089214;28;46577;-48
2021/10/04 00:24:21;;;;;;;;;1.00;1.00;;;;;16.23;58.46;100861.81;2092068;28;47410;-50
2021/10/04 00:25:22;;;;;;;;;1.00;1.00;;;;;16.23;58.66;100859.13;2091353;28;47696;-47
2021/10/04 00:26:22;;;;;;;;;2.00;2.00;;;;;16.22;58.81;100863.63;2083110;28;46979;-51
2021/10/04 00:27:23;;;;;;;;;0.33;0.33;;;;;16.22;58.72;100860.94;2091517;28;47985;-47
2021/10/04 00:28:23;;;;;;;;;0.67;0.67;;;;;16.23;58.35;100859.13;2091892;28;48265;-48
2021/10/04 00:29:24;;;;;;;;;1.00;1.00;;;;;16.22;58.48;100858.25;2091745;28;48074;-51
2021/10/04 00:30:25;;;;;;;;;2.00;2.00;;;;;16.22;58.63;100857.38;2092176;28;47135;-49
2021/10/04 00:31:25;;;;;;;;;3.00;2.00;;;;;16.22;58.29;100860.06;2091876;28;48307;-47
2021/10/04 00:32:26;;;;;;;;;0.33;0.33;;;;;16.21;58.26;100848.50;2091832;28;47832;-49
2021/10/04 00:33:26;;;;;;;;;0.67;0.67;;;;;16.21;58.80;100842.25;2091340;28;48001;-47
2021/10/04 00:34:27;;;;;;;;;1.00;1.00;;;;;16.20;58.82;100844.06;2091352;28;47241;-50
2021/10/04 00:35:28;;;;;;;;;0.67;0.67;;;;;16.19;58.76;100851.22;2092017;28;46483;-51
2021/10/04 00:36:28;;;;;;;;;2.00;1.25;;;;;16.20;58.71;100852.09;2091406;28;45934;-49
2021/10/04 00:37:29;;;;;;;;;3.00;1.33;;;;;16.20;58.35;100852.09;2082692;28;47793;-53
2021/10/04 00:38:31;;;;;;;;;0.75;0.75;;;;;16.19;58.62;100853.03;2091144;28;47374;-48
2021/10/04 00:39:32;;;;;;;;;0.75;0.75;;;;;16.19;58.75;100853.03;2091821;28;48337;-50
2021/10/04 00:40:35;;;;;;;;;1.67;1.67;;;;;16.18;58.53;100857.53;2085362;28;46069;-52
2021/10/04 00:41:35;;;;;;;;;0.00;0.00;;;;;16.18;58.90;100851.31;2091352;28;47292;-48
2021/10/04 00:42:36;;;;;;;;;1.67;1.67;;;;;16.18;58.79;100851.31;2092012;28;47180;-51
2021/10/04 00:43:36;;;;;;;;;1.33;1.33;;;;;16.17;58.76;100846.88;2091748;28;47396;-49
2021/10/04 00:44:37;;;;;;;;;0.67;0.67;;;;;16.17;58.51;100854.91;2091774;28;48304;-51
2021/10/04 00:45:37;;;;;;;;;2.33;1.33;;;;;16.16;58.44;100854.06;2093340;28;48258;-47
2021/10/04 00:46:38;;;;;;;;;0.67;0.67;;;;;16.16;58.76;100858.53;2092014;28;47217;-49
2021/10/04 00:47:40;;;;;;;;;0.33;0.33;;;;;16.14;58.85;100858.59;2091571;28;47209;-51
2021/10/04 00:48:40;;;;;;;;;1.50;0.75;;;;;16.14;58.65;100858.59;2091941;28;47471;-47
2021/10/04 00:49:41;;;;;;;;;0.00;0.00;;;;;16.14;58.85;100863.97;2092495;28;48258;-49
2021/10/04 00:50:43;;;;;;;;;1.00;1.00;;;;;16.13;58.54;100859.53;2099875;28;48125;-49
2021/10/04 00:51:44;;;;;;;;;2.00;0.25;;;;;16.13;58.90;100859.53;2084393;28;46833;-47
2021/10/04 00:52:44;;;;;;;;;0.67;0.67;;;;;16.14;58.58;100855.94;2091328;28;48118;-47
2021/10/04 00:53:46;;;;;;;;;1.00;1.00;;;;;16.14;58.81;100860.41;2091060;28;46203;-49
2021/10/04 00:54:47;;;;;;;;;1.25;1.25;;;;;16.14;58.31;100863.09;2083107;28;47357;-49
2021/10/04 00:55:47;;;;;;;;;2.33;1.00;;;;;16.14;58.33;100857.72;2090987;28;48172;-48
2021/10/04 00:56:48;;;;;;;;;0.00;0.00;;;;;16.14;58.54;100857.72;2091260;28;46191;-48
2021/10/04 00:57:49;;;;;;;;;1.00;0.67;;;;;16.14;58.71;100863.09;2082683;28;47342;-49
2021/10/04 00:58:50;;;;;;;;;2.00;0.67;;;;;16.13;58.37;100856.88;2091440;28;45373;-48
2021/10/04 00:59:51;;;;;;;;;0.75;0.75;;;;;16.14;58.34;100855.06;2091470;28;47309;-49
2021/10/04 01:00:52;;;;;;;;;0.67;0.67;;;;;16.13;58.83;100864.91;2091375;28;47227;-50
2021/10/04 01:01:52;;;;;;;;;0.00;0.00;;;;;16.14;58.73;100858.59;2091087;28;47289;-47
2021/10/04 01:02:53;;;;;;;;;0.67;0.67;;;;;16.14;58.45;100860.41;2091798;28;48187;-50
2021/10/04 01:03:56;;;;;;;;;0.25;0.25;;;;;16.14;58.32;100857.72;2091657;28;46952;-47
2021/10/04 01:04:56;;;;;;;;;2.25;2.00;;;;;16.14;58.57;100861.28;2092148;28;48641;-49
2021/10/04 01:05:57;;;;;;;;;0.33;0.33;;;;;16.13;58.47;100864.00;2091629;28;48537;-51
2021/10/04 01:06:58;;;;;;;;;1.33;0.67;;;;;16.13;58.74;100853.28;2092175;28;47346;-48
2021/10/04 01:07:59;;;;;;;;;0.00;0.00;;;;;16.12;58.57;100857.78;2091601;28;47250;-50
2021/10/04 01:09:00;;;;;;;;;1.00;1.00;;;;;16.12;58.65;100851.53;2091890;28;47020;-53
2021/10/04 01:10:02;;;;;;;;;1.67;1.67;;;;;16.11;58.64;100855.16;2090961;28;47326;-47
2021/10/04 01:11:03;;;;;;;;;1.75;1.75;;;;;16.11;58.44;100856.03;2091209;28;46440;-49
2021/10/04 01:12:04;;;;;;;;;1.00;1.00;;;;;16.11;58.44;100860.50;2091473;28;47354;-47
2021/10/04 01:13:04;;;;;;;;;1.00;1.00;;;;;16.10;58.69;100850.75;2091538;28;48295;-47
2021/10/04 01:14:05;;;;;;;;;2.00;2.00;;;;;16.09;58.46;100852.56;2091387;28;47856;-51
2021/10/04 01:15:06;;;;;;;;;0.67;0.67;;;;;16.10;58.51;100854.28;2091646;28;47670;-49
2021/10/04 01:16:06;;;;;;;;;0.67;0.67;;;;;16.11;58.23;100860.50;2091710;28;47125;-51
2021/10/04 01:17:07;;;;;;;;;0.00;0.00;;;;;16.11;58.65;100863.19;2091481;28;47089;-49
2021/10/04 01:18:08;;;;;;;;;0.00;0.00;;;;;16.10;58.29;100859.66;2091645;28;48301;-50
2021/10/04 01:19:08;;;;;;;;;1.50;1.50;;;;;16.11;58.61;100857.84;2091286;28;48098;-48
2021/10/04 01:20:15;;;;;;;;;1.33;1.33;;;;;16.10;58.28;100858.78;2091774;28;47129;-50
2021/10/04 01:21:16;;;;;;;;;1.00;0.75;;;;;16.10;58.55;100856.09;2091623;28;47938;-50
2021/10/04 01:22:16;;;;;;;;;1.33;1.33;;;;;16.10;58.41;100850.75;2091750;28;48301;-48
2021/10/04 01:23:17;;;;;;;;;0.67;0.67;;;;;16.10;58.72;100858.78;2090683;28;47134;-51
2021/10/04 01:24:18;;;;;;;;;0.33;0.33;;;;;16.10;58.21;100859.66;2090906;28;48464;-47
2021/10/04 01:25:19;;;;;;;;;2.67;0.67;;;;;16.09;58.57;100854.38;2091369;28;48140;-50
2021/10/04 01:26:20;;;;;;;;;0.75;0.25;;;;;16.08;58.25;100858.84;2091703;28;48652;-47
2021/10/04 01:27:21;;;;;;;;;0.25;0.25;;;;;16.07;58.57;100851.75;2091066;28;47522;-52
2021/10/04 01:28:22;;;;;;;;;2.33;0.33;;;;;16.08;58.21;100857.97;2091611;28;47051;-50
2021/10/04 01:29:23;;;;;;;;;1.00;1.00;;;;;16.06;58.60;100863.41;2090596;28;47201;-50
2021/10/04 01:30:27;;;;;;;;;0.67;0.67;;;;;16.06;58.24;100860.72;2091099;28;48530;-49
2021/10/04 01:31:27;;;;;;;;;1.00;1.00;;;;;16.06;58.36;100857.19;2090324;28;46732;-49
2021/10/04 01:32:28;;;;;;;;;1.33;1.33;;;;;16.04;58.58;100859.06;2091740;28;47984;-50
2021/10/04 01:33:28;;;;;;;;;0.33;0.33;;;;;16.02;58.08;100859.13;2091268;28;46908;-51
2021/10/04 01:34:29;;;;;;;;;0.67;0.67;;;;;16.03;58.25;100855.50;2090927;28;47161;-52
2021/10/04 01:35:29;;;;;;;;;0.67;0.33;;;;;16.02;58.18;100855.56;2090710;28;47290;-52
2021/10/04 01:36:31;;;;;;;;;1.00;1.00;;;;;16.02;58.67;100855.56;2091043;28;46874;-49
2021/10/04 01:37:32;;;;;;;;;1.25;1.25;;;;;16.01;58.35;100857.38;2090627;28;46064;-49
2021/10/04 01:38:32;;;;;;;;;1.33;1.33;;;;;16.00;58.62;100850.25;2091578;28;47514;-52
2021/10/04 01:39:33;;;;;;;;;1.67;1.67;;;;;16.00;58.48;100844.03;2091329;28;47079;-52
2021/10/04 01:40:33;;;;;;;;;0.00;0.00;;;;;15.97;58.06;100844.16;2091551;28;46427;-53
2021/10/04 01:41:34;;;;;;;;;0.00;0.00;;;;;15.97;57.96;100844.16;2091471;28;47511;-49
2021/10/04 01:42:35;;;;;;;;;1.33;1.33;;;;;15.97;58.17;100839.69;2091533;28;48111;-49
2021/10/04 01:43:35;;;;;;;;;1.25;1.25;;;;;15.96;58.52;100847.78;2091449;28;47230;-49
2021/10/04 01:44:36;;;;;;;;;0.00;0.00;;;;;15.95;58.54;100846.91;2091386;28;46750;-50
2021/10/04 01:45:37;;;;;;;;;1.67;1.67;;;;;15.95;58.14;100844.22;2092293;28;47236;-49
2021/10/04 01:46:38;;;;;;;;;2.00;1.25;;;;;15.93;58.21;100846.09;2090907;28;47751;-50
2021/10/04 01:47:38;;;;;;;;;1.67;1.67;;;;;15.94;58.00;100844.31;2091230;28;48349;-49
2021/10/04 01:48:39;;;;;;;;;0.67;0.67;;;;;15.93;58.12;100845.25;2090793;28;48155;-51
2021/10/04 01:49:39;;;;;;;;;1.00;1.00;;;;;15.93;58.20;100847.91;2091207;28;48207;-47
2021/10/04 01:50:40;;;;;;;;;0.00;0.00;;;;;15.90;58.52;100843.56;2093405;28;48238;-50
2021/10/04 01:51:41;;;;;;;;;1.00;1.00;;;;;15.90;58.11;100851.59;2090525;28;47170;-49
2021/10/04 01:52:41;;;;;;;;;0.33;0.33;;;;;15.92;58.05;100848.84;2091018;28;47934;-49
2021/10/04 01:53:42;;;;;;;;;1.67;1.67;;;;;15.90;58.75;100848.94;2082437;28;45308;-50
2021/10/04 01:54:43;;;;;;;;;0.00;0.00;;;;;15.90;58.39;100846.25;2090853;28;48074;-48
2021/10/04 01:55:44;;;;;;;;;1.00;1.00;;;;;15.89;58.03;100853.41;2091371;28;47369;-50
2021/10/04 01:56:44;;;;;;;;;0.00;0.00;;;;;15.88;58.24;100846.31;2090917;28;47427;-48
2021/10/04 01:57:45;;;;;;;;;0.67;0.67;;;;;15.88;58.24;100846.31;2082583;28;46094;-49
2021/10/04 01:58:45;;;;;;;;;0.33;0.33;;;;;15.87;57.82;100839.19;2090847;28;47199;-50
2021/10/04 01:59:46;;;;;;;;;0.00;0.00;;;;;15.87;57.96;100841.88;2091143;28;47443;-47
2021/10/04 02:00:47;;;;;;;;;1.33;0.00;;;;;15.87;58.21;100839.19;2090903;28;48008;-49
2021/10/04 02:01:47;;;;;;;;;1.75;1.75;;;;;15.85;58.10;100838.38;2090770;28;47359;-49
2021/10/04 02:02:51;;;;;;;;;0.33;0.00;;;;;15.85;58.39;100841.06;2090680;28;47933;-50
2021/10/04 02:03:54;;;;;;;;;0.50;0.50;;;;;15.85;58.17;100837.53;2083459;28;46272;-53
2021/10/04 02:04:55;;;;;;;;;0.50;0.50;;;;;15.84;58.26;100836.66;2099156;27;47387;-51
2021/10/04 02:05:56;;;;;;;;;0.75;0.75;;;;;15.83;58.61;100834.03;2099066;28;47242;-50
2021/10/04 02:06:56;;;;;;;;;1.33;1.00;;;;;15.83;58.46;100844.75;2090880;28;46847;-52
2021/10/04 02:07:57;;;;;;;;;2.00;1.00;;;;;15.82;58.52;100838.53;2090467;28;47171;-51
2021/10/04 02:08:58;;;;;;;;;1.00;1.00;;;;;15.82;58.43;100840.31;2091521;28;45590;-52
2021/10/04 02:09:59;;;;;;;;;0.33;0.33;;;;;15.82;58.07;100848.34;2091268;28;46860;-51
2021/10/04 02:10:59;;;;;;;;;0.25;0.25;;;;;15.81;58.64;100846.63;2091152;28;48250;-48
2021/10/04 02:12:00;;;;;;;;;1.67;0.67;;;;;15.81;58.55;100850.16;2091328;28;47382;-50
2021/10/04 02:13:02;;;;;;;;;0.67;0.67;;;;;15.82;58.63;100851.91;2091429;28;45238;-49
2021/10/04 02:14:04;;;;;;;;;1.00;1.00;;;;;15.81;58.67;100849.28;2091147;28;47054;-48
2021/10/04 02:15:05;;;;;;;;;0.75;0.75;;;;;15.80;58.05;100853.78;2091011;28;47556;-48
2021/10/04 02:16:06;;;;;;;;;1.25;1.25;;;;;15.79;58.37;100857.38;2091602;28;47335;-52
2021/10/04 02:17:06;;;;;;;;;0.33;0.33;;;;;15.79;58.40;100853.84;2091004;28;48362;-47
2021/10/04 02:18:08;;;;;;;;;0.00;0.00;;;;;15.78;58.32;100850.31;2091488;28;46425;-50
2021/10/04 02:19:09;;;;;;;;;1.00;1.00;;;;;15.78;58.30;100852.97;2081806;28;47672;-51
2021/10/04 02:20:15;;;;;;;;;0.00;0.00;;;;;15.78;58.34;100849.44;2074449;28;46959;-50
2021/10/04 02:21:16;;;;;;;;;0.00;0.00;;;;;15.78;58.59;100852.09;2088175;28;47289;-50
2021/10/04 02:22:16;;;;;;;;;0.67;0.67;;;;;15.76;58.48;100848.63;2091424;28;47279;-50
2021/10/04 02:23:17;;;;;;;;;1.00;1.00;;;;;15.76;58.15;100848.63;2091110;28;47149;-50
2021/10/04 02:24:17;;;;;;;;;0.33;0.33;;;;;15.76;58.29;100848.63;2091369;28;47289;-53
2021/10/04 02:25:18;;;;;;;;;0.00;0.00;;;;;15.75;58.08;100852.22;2091133;28;47280;-50
2021/10/04 02:26:19;;;;;;;;;0.00;0.00;;;;;15.75;58.65;100853.09;2091378;28;47094;-48
2021/10/04 02:27:19;;;;;;;;;1.00;1.00;;;;;15.74;58.39;100851.34;2091092;28;48010;-50
2021/10/04 02:28:21;;;;;;;;;0.67;0.67;;;;;15.74;58.31;100853.13;2091393;28;48512;-50
2021/10/04 02:29:22;;;;;;;;;0.25;0.25;;;;;15.75;58.42;100861.13;2090867;28;48319;-46
2021/10/04 02:30:24;;;;;;;;;1.00;1.00;;;;;15.74;58.60;100850.47;2091472;28;47919;-49
2021/10/04 02:31:24;;;;;;;;;2.00;0.50;;;;;15.74;58.64;100861.16;2090952;28;48227;-50
2021/10/04 02:32:25;;;;;;;;;0.67;0.67;;;;;15.73;58.50;100859.44;2090644;28;47254;-52
2021/10/04 02:33:25;;;;;;;;;0.67;0.00;;;;;15.71;58.59;100854.16;2090536;28;47381;-48
2021/10/04 02:34:26;;;;;;;;;1.00;1.00;;;;;15.72;58.19;100858.56;2088087;28;47312;-48
2021/10/04 02:35:27;;;;;;;;;0.67;0.67;;;;;15.72;58.67;100857.69;2090577;28;47620;-51
2021/10/04 02:36:27;;;;;;;;;0.67;0.67;;;;;15.71;58.15;100853.28;2090542;28;46941;-46
2021/10/04 02:37:27;;;;;;;;;0.00;0.00;;;;;15.71;58.31;100858.63;2090323;28;48633;-52
2021/10/04 02:38:28;;;;;;;;;0.00;0.00;;;;;15.69;57.98;100850.66;2091143;28;47463;-51
2021/10/04 02:39:28;;;;;;;;;3.00;1.67;;;;;15.68;58.36;100848.06;2091063;28;47425;-48
2021/10/04 02:40:29;;;;;;;;;1.00;0.67;;;;;15.67;58.55;100849.84;2092631;28;47294;-47
2021/10/04 02:41:30;;;;;;;;;1.67;0.00;;;;;15.67;58.51;100847.19;2089705;28;48421;-48
2021/10/04 02:42:32;;;;;;;;;0.00;0.00;;;;;15.66;58.58;100849.94;2085863;28;48656;-52
2021/10/04 02:43:33;;;;;;;;;1.50;0.50;;;;;15.65;58.31;100845.50;2092805;28;47363;-49
2021/10/04 02:44:33;;;;;;;;;0.67;0.67;;;;;15.64;58.07;100839.28;2092553;28;46205;-51
2021/10/04 02:45:34;;;;;;;;;1.67;1.67;;;;;15.64;58.62;100839.28;2092805;28;48325;-49
2021/10/04 02:46:35;;;;;;;;;0.00;0.00;;;;;15.63;58.29;100834.88;2092071;28;47849;-48
2021/10/04 02:47:36;;;;;;;;;1.67;0.67;;;;;15.62;58.31;100833.09;2092529;28;47294;-48
2021/10/04 02:48:36;;;;;;;;;0.00;0.00;;;;;15.62;58.22;100835.78;2092693;28;47909;-48
2021/10/04 02:49:37;;;;;;;;;0.67;0.67;;;;;15.63;58.29;100836.69;2092870;28;48006;-47
2021/10/04 02:50:37;;;;;;;;;0.33;0.33;;;;;15.61;58.32;100828.69;2098572;27;48491;-51
2021/10/04 02:51:38;;;;;;;;;0.00;0.00;;;;;15.62;58.60;100837.59;2092698;28;45313;-51
2021/10/04 02:52:39;;;;;;;;;0.33;0.33;;;;;15.61;58.67;100834.03;2092675;28;47320;-48
2021/10/04 02:53:40;;;;;;;;;0.00;0.00;;;;;15.60;58.68;100843.88;2092436;28;47345;-51
2021/10/04 02:54:40;;;;;;;;;0.00;0.00;;;;;15.58;58.60;100837.69;2092738;28;48562;-51
2021/10/04 02:55:41;;;;;;;;;4.00;1.00;;;;;15.58;58.57;100836.81;2092585;28;48147;-50
2021/10/04 02:56:41;;;;;;;;;0.67;0.67;;;;;15.57;58.54;100843.97;2092768;28;47425;-48
2021/10/04 02:57:42;;;;;;;;;1.67;0.67;;;;;15.57;58.56;100843.09;2092318;28;47946;-49
2021/10/04 02:58:42;;;;;;;;;0.67;0.67;;;;;15.56;58.10;100847.59;2092588;28;47756;-49
2021/10/04 02:59:43;;;;;;;;;0.00;0.00;;;;;15.55;58.35;100848.50;2091747;28;48398;-51
2021/10/04 03:00:44;;;;;;;;;0.00;0.00;;;;;15.55;58.46;100847.66;2091850;28;47347;-51
2021/10/04 03:01:44;;;;;;;;;0.67;0.67;;;;;15.55;58.64;100855.66;2100347;28;48022;-52
2021/10/04 03:02:45;;;;;;;;;0.00;0.00;;;;;15.54;58.05;100852.13;2092065;28;47292;-47
2021/10/04 03:03:46;;;;;;;;;0.00;0.00;;;;;15.54;58.19;100852.13;2091916;28;47457;-47
2021/10/04 03:04:46;;;;;;;;;0.67;0.67;;;;;15.54;58.14;100844.09;2092815;28;47505;-51
2021/10/04 03:05:48;;;;;;;;;0.00;0.00;;;;;15.53;58.43;100853.06;2091651;28;48144;-53
2021/10/04 03:06:48;;;;;;;;;1.75;0.00;;;;;15.53;58.42;100852.19;2092133;28;46477;-48
2021/10/04 03:07:49;;;;;;;;;0.00;0.00;;;;;15.52;58.47;100848.66;2100140;27;47148;-51
2021/10/04 03:08:49;;;;;;;;;0.33;0.00;;;;;15.51;58.27;100846.03;2100599;28;47242;-49
2021/10/04 03:09:50;;;;;;;;;0.00;0.00;;;;;15.51;58.36;100854.94;2084956;28;47877;-48
2021/10/04 03:10:50;;;;;;;;;0.67;0.00;;;;;15.50;58.35;100853.19;2092783;28;48111;-48
2021/10/04 03:11:51;;;;;;;;;0.33;0.00;;;;;15.49;58.51;100851.41;2092396;28;47322;-50
2021/10/04 03:12:52;;;;;;;;;0.67;0.33;;;;;15.50;58.31;100858.53;2092621;28;46069;-50
2021/10/04 03:13:52;;;;;;;;;0.25;0.25;;;;;15.50;58.65;100852.28;2092159;28;48012;-52
2021/10/04 03:14:53;;;;;;;;;1.33;1.00;;;;;15.51;58.25;100857.59;2092605;28;48443;-49
2021/10/04 03:15:54;;;;;;;;;1.00;1.00;;;;;15.51;58.26;100854.06;2092430;28;47319;-50
2021/10/04 03:16:54;;;;;;;;;0.00;0.00;;;;;15.51;58.43;100859.41;2092706;28;46240;-53
2021/10/04 03:17:55;;;;;;;;;0.00;0.00;;;;;15.50;58.25;100861.22;2092232;28;47400;-50
2021/10/04 03:18:55;;;;;;;;;1.00;1.00;;;;;15.50;58.22;100860.31;2092684;28;47240;-50
2021/10/04 03:19:56;;;;;;;;;0.00;0.00;;;;;15.50;58.12;100860.31;2092206;28;47239;-52
2021/10/04 03:20:56;;;;;;;;;0.00;0.00;;;;;15.49;58.68;100859.44;2092484;28;47435;-48
2021/10/04 03:21:57;;;;;;;;;1.00;1.00;;;;;15.49;58.31;100847.88;2092406;28;47283;-48
2021/10/04 03:22:57;;;;;;;;;0.00;0.00;;;;;15.49;58.36;100858.56;2091878;28;46583;-51
2021/10/04 03:23:58;;;;;;;;;1.00;0.00;;;;;15.48;58.78;100860.38;2091682;28;46568;-49
2021/10/04 03:24:58;;;;;;;;;1.00;0.00;;;;;15.48;58.58;100863.06;2092455;28;47361;-50
2021/10/04 03:25:59;;;;;;;;;1.00;1.00;;;;;15.47;58.28;100852.41;2092136;28;48184;-50
2021/10/04 03:27:00;;;;;;;;;0.00;0.00;;;;;15.47;58.88;100855.97;2092664;28;48478;-51
2021/10/04 03:28:01;;;;;;;;;1.00;1.00;;;;;15.48;58.34;100859.50;2092274;28;47392;-51
2021/10/04 03:29:02;;;;;;;;;0.00;0.00;;;;;15.47;58.38;100857.75;2091672;28;47226;-49
2021/10/04 03:30:05;;;;;;;;;0.50;0.50;;;;;15.48;58.83;100856.84;2091620;28;45492;-50
2021/10/04 03:31:07;;;;;;;;;0.75;0.50;;;;;15.47;58.79;100857.75;2091737;28;47299;-50
2021/10/04 03:32:07;;;;;;;;;1.75;0.75;;;;;15.46;58.68;100851.56;2091648;28;47901;-52
2021/10/04 03:33:09;;;;;;;;;0.75;0.00;;;;;15.47;58.44;100861.31;2092183;28;45151;-48
2021/10/04 03:34:11;;;;;;;;;1.75;0.00;;;;;15.47;58.64;100855.97;2092299;28;47212;-52
2021/10/04 03:35:12;;;;;;;;;0.00;0.00;;;;;15.47;58.47;100847.94;2091617;28;48549;-49
2021/10/04 03:36:13;;;;;;;;;0.25;0.00;;;;;15.47;58.62;100858.63;2091507;28;48704;-49
2021/10/04 03:37:15;;;;;;;;;0.25;0.25;;;;;15.48;58.46;100851.47;2091943;28;47417;-52
2021/10/04 03:38:15;;;;;;;;;0.00;0.00;;;;;15.48;58.81;100851.47;2092336;28;46499;-50
2021/10/04 03:39:16;;;;;;;;;0.00;0.00;;;;;15.47;58.78;100850.63;2092190;28;48440;-51
2021/10/04 03:40:18;;;;;;;;;0.00;0.00;;;;;15.47;58.60;100853.28;2092447;28;47175;-51
2021/10/04 03:41:19;;;;;;;;;0.50;0.50;;;;;15.47;58.37;100853.28;2085125;28;47488;-49
2021/10/04 03:42:20;;;;;;;;;0.75;0.75;;;;;15.47;58.80;100839.03;2092272;28;47312;-55
2021/10/04 03:43:20;;;;;;;;;0.33;0.00;;;;;15.47;58.45;100839.03;2092191;28;47481;-49
2021/10/04 03:44:21;;;;;;;;;1.33;1.33;;;;;15.46;58.96;100843.53;2092157;28;47168;-49
2021/10/04 03:45:21;;;;;;;;;0.00;0.00;;;;;15.46;58.97;100843.53;2091905;28;47206;-49
2021/10/04 03:46:22;;;;;;;;;0.33;0.33;;;;;15.47;58.47;100849.75;2094112;28;47518;-48
2021/10/04 03:47:23;;;;;;;;;1.67;0.33;;;;;15.47;58.73;100845.25;2092039;28;47107;-51
2021/10/04 03:48:23;;;;;;;;;0.33;0.33;;;;;15.47;58.90;100847.06;2091690;28;48214;-50
2021/10/04 03:49:24;;;;;;;;;0.67;0.00;;;;;15.46;58.47;100853.34;2091496;28;45287;-51
2021/10/04 03:50:24;;;;;;;;;0.33;0.33;;;;;15.46;58.57;100854.22;2094733;28;47048;-51
2021/10/04 03:51:26;;;;;;;;;2.00;2.00;;;;;15.46;58.94;100848.00;2091215;28;48154;-53
2021/10/04 03:52:27;;;;;;;;;0.00;0.00;;;;;15.46;58.37;100848.88;2092387;28;47230;-53
2021/10/04 03:53:27;;;;;;;;;0.00;0.00;;;;;15.45;58.59;100849.81;2092015;28;47793;-51
2021/10/04 03:54:28;;;;;;;;;1.00;1.00;;;;;15.46;58.75;100848.00;2092446;28;47602;-51
2021/10/04 03:55:28;;;;;;;;;2.33;1.00;;;;;15.44;58.70;100850.75;2092038;28;48403;-47
2021/10/04 03:56:29;;;;;;;;;1.00;1.00;;;;;15.45;58.44;100852.47;2092265;28;48190;-48
2021/10/04 03:57:30;;;;;;;;;0.00;0.00;;;;;15.45;58.70;100854.28;2091956;28;47435;-52
2021/10/04 03:58:30;;;;;;;;;0.33;0.33;;;;;15.45;58.50;100856.97;2092465;28;48384;-51
2021/10/04 03:59:31;;;;;;;;;1.67;1.67;;;;;15.45;58.48;100862.31;2091668;28;47306;-51
2021/10/04 04:00:32;;;;;;;;;1.00;1.00;;;;;15.44;58.47;100863.25;2092245;28;47778;-51
2021/10/04 04:01:32;;;;;;;;;0.00;0.00;;;;;15.45;58.79;100867.66;2092020;28;47205;-52
2021/10/04 04:02:33;;;;;;;;;2.67;1.00;;;;;15.45;58.79;100873.00;2092330;28;46984;-51
2021/10/04 04:03:33;;;;;;;;;2.00;1.00;;;;;15.43;58.77;100873.06;2089389;28;45898;-51
2021/10/04 04:04:34;;;;;;;;;0.00;0.00;;;;;15.43;58.86;100878.41;2092229;28;47413;-51
2021/10/04 04:05:34;;;;;;;;;1.00;1.00;;;;;15.44;58.46;100879.28;2091943;28;48214;-52
2021/10/04 04:06:35;;;;;;;;;0.00;0.00;;;;;15.43;58.53;100883.78;2092325;28;45348;-50
2021/10/04 04:07:36;;;;;;;;;1.00;1.00;;;;;15.42;58.34;100883.84;2091835;28;48444;-51
2021/10/04 04:08:36;;;;;;;;;0.75;0.75;;;;;15.42;58.34;100881.16;2092102;28;47292;-51
2021/10/04 04:09:37;;;;;;;;;2.00;0.00;;;;;15.42;58.62;100881.16;2091900;28;48071;-52
2021/10/04 04:10:37;;;;;;;;;1.00;1.00;;;;;15.41;58.54;100882.97;2092286;28;46762;-50
2021/10/04 04:11:38;;;;;;;;;1.00;0.00;;;;;15.41;58.84;100890.13;2091458;28;47097;-49
2021/10/04 04:12:39;;;;;;;;;1.00;0.33;;;;;15.41;58.94;100890.13;2091310;28;47228;-51
2021/10/04 04:13:40;;;;;;;;;0.00;0.00;;;;;15.40;58.55;100886.56;2092068;28;45700;-50
2021/10/04 04:14:40;;;;;;;;;2.33;1.33;;;;;15.40;58.62;100886.56;2091933;28;48152;-48
2021/10/04 04:15:41;;;;;;;;;2.00;0.00;;;;;15.40;58.41;100888.38;2090549;28;46448;-49
2021/10/04 04:16:42;;;;;;;;;1.00;1.00;;;;;15.41;58.30;100895.47;2091433;28;47356;-52
2021/10/04 04:17:42;;;;;;;;;1.00;1.00;;;;;15.40;58.42;100889.25;2091852;28;47353;-50
2021/10/04 04:18:43;;;;;;;;;1.00;1.00;;;;;15.39;58.53;100879.47;2091940;28;47975;-50
2021/10/04 04:19:43;;;;;;;;;0.00;0.00;;;;;15.40;58.50;100881.22;2091920;28;47156;-52
2021/10/04 04:20:44;;;;;;;;;1.00;1.00;;;;;15.38;58.45;100875.06;2091931;28;48054;-49
2021/10/04 04:21:44;;;;;;;;;0.67;0.67;;;;;15.38;58.92;100880.41;2091274;28;48591;-48
2021/10/04 04:22:45;;;;;;;;;0.50;0.00;;;;;15.38;58.78;100875.06;2091224;28;48212;-50
2021/10/04 04:23:46;;;;;;;;;0.50;0.50;;;;;15.39;58.30;100879.47;2086460;28;48116;-48
2021/10/04 04:24:47;;;;;;;;;1.00;1.00;;;;;15.40;58.69;100888.38;2091989;28;47333;-51
2021/10/04 04:25:47;;;;;;;;;1.00;1.00;;;;;15.38;58.61;100885.75;2091804;28;48246;-48
2021/10/04 04:26:50;;;;;;;;;0.00;0.00;;;;;15.38;58.72;100880.41;2092030;28;48584;-52
2021/10/04 04:27:50;;;;;;;;;3.00;0.75;;;;;15.38;58.49;100879.53;2091966;28;48156;-49
2021/10/04 04:28:51;;;;;;;;;1.67;1.00;;;;;15.37;58.47;100877.78;2091871;28;48074;-49
2021/10/04 04:29:52;;;;;;;;;3.00;1.33;;;;;15.37;58.74;100886.66;2091787;28;48032;-52
2021/10/04 04:30:52;;;;;;;;;1.50;1.00;;;;;15.37;58.57;100889.34;2091837;28;48426;-52
2021/10/04 04:31:53;;;;;;;;;1.00;0.00;;;;;15.37;58.37;100888.47;2091339;28;48229;-51
2021/10/04 04:32:53;;;;;;;;;0.00;0.00;;;;;15.36;58.66;100887.59;2091370;28;48115;-51
2021/10/04 04:33:54;;;;;;;;;1.00;1.00;;;;;15.36;58.57;100892.94;2091872;28;48116;-49
2021/10/04 04:34:55;;;;;;;;;4.00;0.25;;;;;15.36;58.48;100889.41;2091333;28;47870;-50
2021/10/04 04:35:56;;;;;;;;;1.00;1.00;;;;;15.35;58.69;100893.88;2091261;28;45428;-51
2021/10/04 04:36:56;;;;;;;;;0.00;0.00;;;;;15.36;59.04;100895.63;2091750;28;47075;-49
2021/10/04 04:37:57;;;;;;;;;1.00;1.00;;;;;15.34;58.52;100894.81;2090865;28;47059;-51
2021/10/04 04:38:58;;;;;;;;;1.67;0.33;;;;;15.35;58.89;100895.69;2091401;28;47324;-50
2021/10/04 04:39:58;;;;;;;;;0.25;0.00;;;;;15.35;58.47;100895.69;2099668;28;47287;-51
2021/10/04 04:40:59;;;;;;;;;0.67;0.67;;;;;15.34;58.56;100899.28;2099641;28;46479;-51
2021/10/04 04:42:01;;;;;;;;;0.00;0.00;;;;;15.32;58.49;100900.22;2089375;28;47168;-50
2021/10/04 04:43:03;;;;;;;;;1.00;1.00;;;;;15.31;58.34;100898.47;2088044;28;48326;-53